FRS123 ETHL-EDJA
Flight info
| Callsign | FRS123 |
|---|---|
| Flight time | 0h 14m |
| Altitude | 3500 |
| Route | DCT |
| Aircraft | PA24/L-SDGRY/S |
Departure
| Time | 2026-05-01 14:27 |
|---|---|
| Airport | Laupheim Air Base (ETHL) |
Arrival
| Time | 2026-05-01 14:41 |
|---|---|
| Airport | Memmingen Allgau Airport (EDJA) |
| Time | Latitude | Longitude | Altitude | Speed | Heading |
|---|---|---|---|---|---|
| 2026-05-01 14:18 | 48.22702 | 9.90465 | 1766 ft | 0 kts | 244° |
| 2026-05-01 14:22 | 48.22694 | 9.90460 | 1767 ft | 4 kts | 161° |
| 2026-05-01 14:22 | 48.22658 | 9.90535 | 1767 ft | 13 kts | 117° |
| 2026-05-01 14:23 | 48.22613 | 9.90666 | 1767 ft | 13 kts | 115° |
| 2026-05-01 14:23 | 48.22645 | 9.90768 | 1768 ft | 15 kts | 71° |
| 2026-05-01 14:23 | 48.22604 | 9.90922 | 1767 ft | 20 kts | 122° |
| 2026-05-01 14:23 | 48.22489 | 9.91062 | 1769 ft | 25 kts | 157° |
| 2026-05-01 14:24 | 48.22334 | 9.91137 | 1770 ft | 20 kts | 169° |
| 2026-05-01 14:24 | 48.22224 | 9.91201 | 1769 ft | 15 kts | 160° |
| 2026-05-01 14:24 | 48.22122 | 9.91239 | 1769 ft | 13 kts | 178° |
| 2026-05-01 14:24 | 48.22096 | 9.91239 | 1769 ft | 0 kts | 184° |
| 2026-05-01 14:25 | 48.22063 | 9.91236 | 1769 ft | 17 kts | 183° |
| 2026-05-01 14:26 | 48.22004 | 9.91254 | 1771 ft | 0 kts | 107° |
| 2026-05-01 14:26 | 48.21986 | 9.91707 | 1798 ft | 69 kts | 93° |
| 2026-05-01 14:26 | 48.21841 | 9.92482 | 1974 ft | 89 kts | 124° |
| 2026-05-01 14:27 | 48.21440 | 9.93207 | 2261 ft | 81 kts | 125° |
| 2026-05-01 14:27 | 48.21024 | 9.93801 | 2418 ft | 88 kts | 151° |
| 2026-05-01 14:27 | 48.20406 | 9.93740 | 2535 ft | 103 kts | 202° |
| 2026-05-01 14:28 | 48.19080 | 9.92429 | 2890 ft | 121 kts | 203° |
| 2026-05-01 14:28 | 48.18322 | 9.91830 | 3055 ft | 123 kts | 205° |
| 2026-05-01 14:28 | 48.17540 | 9.91186 | 3102 ft | 136 kts | 204° |
| 2026-05-01 14:28 | 48.16669 | 9.90465 | 3081 ft | 148 kts | 202° |
| 2026-05-01 14:29 | 48.15745 | 9.89759 | 3084 ft | 150 kts | 203° |
| 2026-05-01 14:29 | 48.14826 | 9.89015 | 3042 ft | 150 kts | 204° |
| 2026-05-01 14:30 | 48.12022 | 9.87324 | 3075 ft | 147 kts | 160° |
| 2026-05-01 14:30 | 48.11263 | 9.88240 | 3080 ft | 141 kts | 120° |
| 2026-05-01 14:30 | 48.11055 | 9.89655 | 3082 ft | 141 kts | 83° |
| 2026-05-01 14:31 | 48.11542 | 9.92390 | 3076 ft | 134 kts | 78° |
| 2026-05-01 14:31 | 48.11761 | 9.93743 | 3075 ft | 134 kts | 79° |
| 2026-05-01 14:31 | 48.11842 | 9.95150 | 3045 ft | 138 kts | 95° |
| 2026-05-01 14:31 | 48.11725 | 9.96552 | 3050 ft | 137 kts | 96° |
| 2026-05-01 14:32 | 48.11581 | 9.97959 | 3051 ft | 136 kts | 98° |
| 2026-05-01 14:32 | 48.11493 | 9.98899 | 3055 ft | 135 kts | 97° |
| 2026-05-01 14:32 | 48.11316 | 10.00770 | 3050 ft | 139 kts | 95° |
| 2026-05-01 14:32 | 48.11196 | 10.02209 | 3054 ft | 137 kts | 95° |
| 2026-05-01 14:33 | 48.11077 | 10.03516 | 3297 ft | 118 kts | 96° |
| 2026-05-01 14:33 | 48.10953 | 10.04776 | 3285 ft | 128 kts | 95° |
| 2026-05-01 14:33 | 48.10843 | 10.06022 | 3445 ft | 120 kts | 97° |
| 2026-05-01 14:33 | 48.10718 | 10.07285 | 3420 ft | 124 kts | 96° |
| 2026-05-01 14:34 | 48.10588 | 10.08575 | 3434 ft | 127 kts | 97° |
| 2026-05-01 14:34 | 48.10427 | 10.09911 | 3425 ft | 132 kts | 98° |
| 2026-05-01 14:34 | 48.10238 | 10.11273 | 3415 ft | 135 kts | 102° |
| 2026-05-01 14:34 | 48.10013 | 10.12664 | 3341 ft | 138 kts | 100° |
| 2026-05-01 14:35 | 48.09806 | 10.14033 | 3386 ft | 134 kts | 96° |
| 2026-05-01 14:35 | 48.09702 | 10.15389 | 3397 ft | 130 kts | 94° |
| 2026-05-01 14:35 | 48.09644 | 10.16731 | 3401 ft | 132 kts | 89° |
| 2026-05-01 14:35 | 48.09612 | 10.18093 | 3403 ft | 130 kts | 94° |
| 2026-05-01 14:36 | 48.09516 | 10.19448 | 3405 ft | 131 kts | 94° |
| 2026-05-01 14:36 | 48.09420 | 10.20784 | 3402 ft | 126 kts | 98° |
| 2026-05-01 14:36 | 48.08973 | 10.21910 | 3399 ft | 133 kts | 138° |
| 2026-05-01 14:36 | 48.08073 | 10.22222 | 3400 ft | 140 kts | 181° |
| 2026-05-01 14:37 | 48.07090 | 10.21908 | 3400 ft | 147 kts | 180° |
| 2026-05-01 14:37 | 48.06087 | 10.21742 | 3402 ft | 145 kts | 180° |
| 2026-05-01 14:37 | 48.05086 | 10.21586 | 3404 ft | 147 kts | 179° |
| 2026-05-01 14:37 | 48.04049 | 10.21631 | 3405 ft | 150 kts | 166° |
| 2026-05-01 14:38 | 48.03034 | 10.21821 | 3397 ft | 144 kts | 164° |
| 2026-05-01 14:38 | 48.02127 | 10.22235 | 3296 ft | 124 kts | 153° |
| 2026-05-01 14:38 | 48.01372 | 10.22560 | 3160 ft | 106 kts | 163° |
| 2026-05-01 14:38 | 48.00637 | 10.22518 | 3017 ft | 106 kts | 186° |
| 2026-05-01 14:39 | 48.00005 | 10.21974 | 2960 ft | 110 kts | 222° |
| 2026-05-01 14:39 | 47.99553 | 10.21039 | 2895 ft | 110 kts | 233° |
| 2026-05-01 14:39 | 47.99129 | 10.20082 | 2817 ft | 113 kts | 231° |
| 2026-05-01 14:39 | 47.98496 | 10.19648 | 2863 ft | 101 kts | 156° |
| 2026-05-01 14:40 | 47.97886 | 10.20101 | 2805 ft | 96 kts | 121° |
| 2026-05-01 14:40 | 47.97799 | 10.20979 | 2614 ft | 84 kts | 78° |
| 2026-05-01 14:40 | 47.98024 | 10.21766 | 2339 ft | 76 kts | 62° |
| 2026-05-01 14:40 | 47.98279 | 10.22415 | 2190 ft | 72 kts | 63° |
| 2026-05-01 14:41 | 47.98510 | 10.23010 | 2090 ft | 60 kts | 60° |
| 2026-05-01 14:41 | 47.98674 | 10.23407 | 2074 ft | 31 kts | 58° |
| 2026-05-01 14:41 | 47.98711 | 10.23589 | 2074 ft | 10 kts | 115° |
| 2026-05-01 14:41 | 47.98698 | 10.23616 | 2073 ft | 0 kts | 152° |
| 2026-05-01 14:42 | 47.98686 | 10.23626 | 2073 ft | 4 kts | 152° |
| 2026-05-01 14:42 | 47.98666 | 10.23651 | 2072 ft | 4 kts | 96° |
| 2026-05-01 14:42 | 47.98651 | 10.23700 | 2071 ft | 6 kts | 153° |
| 2026-05-01 14:42 | 47.98647 | 10.23704 | 2072 ft | 0 kts | 144° |